sensor_id;sensor_type;location;lat;lon;timestamp;P1;durP1;ratioP1;P2;durP2;ratioP2
9807;SDS011;4943;52.550;13.462;2023-02-03T00:00:25;3.83;;;1.87;;
9807;SDS011;4943;52.550;13.462;2023-02-03T00:02:54;3.67;;;1.67;;
9807;SDS011;4943;52.550;13.462;2023-02-03T00:05:22;2.20;;;1.57;;
9807;SDS011;4943;52.550;13.462;2023-02-03T00:07:50;2.53;;;1.80;;
9807;SDS011;4943;52.550;13.462;2023-02-03T00:10:19;2.57;;;1.63;;
9807;SDS011;4943;52.550;13.462;2023-02-03T00:12:47;3.73;;;1.20;;
9807;SDS011;4943;52.550;13.462;2023-02-03T00:15:17;5.73;;;2.17;;
9807;SDS011;4943;52.550;13.462;2023-02-03T00:17:49;2.97;;;1.57;;
9807;SDS011;4943;52.550;13.462;2023-02-03T00:20:17;3.37;;;1.27;;
9807;SDS011;4943;52.550;13.462;2023-02-03T00:22:45;3.77;;;1.60;;
9807;SDS011;4943;52.550;13.462;2023-02-03T00:25:13;2.50;;;1.67;;
9807;SDS011;4943;52.550;13.462;2023-02-03T00:27:41;6.43;;;2.20;;
9807;SDS011;4943;52.550;13.462;2023-02-03T00:30:10;5.97;;;1.27;;
9807;SDS011;4943;52.550;13.462;2023-02-03T00:32:38;2.17;;;1.53;;
9807;SDS011;4943;52.550;13.462;2023-02-03T00:35:08;3.77;;;1.93;;
9807;SDS011;4943;52.550;13.462;2023-02-03T00:37:36;4.73;;;1.80;;
9807;SDS011;4943;52.550;13.462;2023-02-03T00:40:04;5.30;;;2.10;;
9807;SDS011;4943;52.550;13.462;2023-02-03T00:42:33;3.77;;;1.93;;
9807;SDS011;4943;52.550;13.462;2023-02-03T00:45:01;1.63;;;1.40;;
9807;SDS011;4943;52.550;13.462;2023-02-03T00:47:29;2.40;;;1.60;;
9807;SDS011;4943;52.550;13.462;2023-02-03T00:49:57;4.40;;;2.00;;
9807;SDS011;4943;52.550;13.462;2023-02-03T00:52:26;5.00;;;1.60;;
9807;SDS011;4943;52.550;13.462;2023-02-03T00:54:54;2.93;;;2.10;;
9807;SDS011;4943;52.550;13.462;2023-02-03T00:57:22;6.57;;;2.70;;
9807;SDS011;4943;52.550;13.462;2023-02-03T00:59:50;4.07;;;2.20;;
9807;SDS011;4943;52.550;13.462;2023-02-03T01:02:18;3.53;;;2.47;;
9807;SDS011;4943;52.550;13.462;2023-02-03T01:04:46;6.77;;;2.53;;
9807;SDS011;4943;52.550;13.462;2023-02-03T01:07:15;2.80;;;1.70;;
9807;SDS011;4943;52.550;13.462;2023-02-03T01:09:44;3.47;;;1.93;;
9807;SDS011;4943;52.550;13.462;2023-02-03T01:12:12;3.67;;;1.90;;
9807;SDS011;4943;52.550;13.462;2023-02-03T01:14:40;4.93;;;1.93;;
9807;SDS011;4943;52.550;13.462;2023-02-03T01:17:08;4.13;;;1.97;;
9807;SDS011;4943;52.550;13.462;2023-02-03T01:19:36;3.60;;;2.00;;
9807;SDS011;4943;52.550;13.462;2023-02-03T01:22:04;6.83;;;2.23;;
9807;SDS011;4943;52.550;13.462;2023-02-03T01:24:32;3.17;;;1.90;;
9807;SDS011;4943;52.550;13.462;2023-02-03T01:27:01;2.77;;;1.63;;
9807;SDS011;4943;52.550;13.462;2023-02-03T01:29:31;5.37;;;2.00;;
9807;SDS011;4943;52.550;13.462;2023-02-03T01:31:59;2.37;;;1.60;;
9807;SDS011;4943;52.550;13.462;2023-02-03T01:34:27;2.80;;;1.70;;
9807;SDS011;4943;52.550;13.462;2023-02-03T01:36:55;3.67;;;1.83;;
9807;SDS011;4943;52.550;13.462;2023-02-03T01:39:23;2.23;;;1.10;;
9807;SDS011;4943;52.550;13.462;2023-02-03T01:41:53;5.47;;;2.03;;
9807;SDS011;4943;52.550;13.462;2023-02-03T01:44:39;3.00;;;1.70;;
9807;SDS011;4943;52.550;13.462;2023-02-03T01:47:12;3.60;;;1.60;;
9807;SDS011;4943;52.550;13.462;2023-02-03T01:49:46;3.07;;;1.60;;
9807;SDS011;4943;52.550;13.462;2023-02-03T01:52:17;2.63;;;1.47;;
9807;SDS011;4943;52.550;13.462;2023-02-03T01:54:45;1.33;;;1.23;;
9807;SDS011;4943;52.550;13.462;2023-02-03T01:57:17;3.73;;;2.00;;
9807;SDS011;4943;52.550;13.462;2023-02-03T01:59:50;2.83;;;1.53;;
9807;SDS011;4943;52.550;13.462;2023-02-03T02:02:20;2.23;;;1.70;;
9807;SDS011;4943;52.550;13.462;2023-02-03T02:04:50;3.10;;;1.40;;
9807;SDS011;4943;52.550;13.462;2023-02-03T02:07:22;2.40;;;1.47;;
9807;SDS011;4943;52.550;13.462;2023-02-03T02:09:50;5.37;;;2.03;;
9807;SDS011;4943;52.550;13.462;2023-02-03T02:12:18;3.73;;;1.80;;
9807;SDS011;4943;52.550;13.462;2023-02-03T02:14:46;2.03;;;1.67;;
9807;SDS011;4943;52.550;13.462;2023-02-03T02:17:19;1.73;;;1.53;;
9807;SDS011;4943;52.550;13.462;2023-02-03T02:23:06;4.47;;;1.80;;
9807;SDS011;4943;52.550;13.462;2023-02-03T02:29:10;2.73;;;1.53;;
9807;SDS011;4943;52.550;13.462;2023-02-03T02:32:05;5.17;;;1.70;;
9807;SDS011;4943;52.550;13.462;2023-02-03T02:34:46;2.63;;;1.77;;
9807;SDS011;4943;52.550;13.462;2023-02-03T02:37:21;3.43;;;1.70;;
9807;SDS011;4943;52.550;13.462;2023-02-03T02:39:58;2.73;;;1.47;;
9807;SDS011;4943;52.550;13.462;2023-02-03T02:42:34;1.87;;;1.30;;
9807;SDS011;4943;52.550;13.462;2023-02-03T02:45:11;5.00;;;1.90;;
9807;SDS011;4943;52.550;13.462;2023-02-03T02:47:43;1.90;;;1.73;;
9807;SDS011;4943;52.550;13.462;2023-02-03T02:50:15;1.70;;;1.50;;
9807;SDS011;4943;52.550;13.462;2023-02-03T02:52:49;3.87;;;1.73;;
9807;SDS011;4943;52.550;13.462;2023-02-03T02:55:19;1.70;;;1.60;;
9807;SDS011;4943;52.550;13.462;2023-02-03T02:57:50;5.30;;;2.07;;
9807;SDS011;4943;52.550;13.462;2023-02-03T03:00:21;1.43;;;1.33;;
9807;SDS011;4943;52.550;13.462;2023-02-03T03:02:52;1.80;;;1.60;;
9807;SDS011;4943;52.550;13.462;2023-02-03T03:05:20;1.10;;;1.00;;
9807;SDS011;4943;52.550;13.462;2023-02-03T03:07:51;1.57;;;1.20;;
9807;SDS011;4943;52.550;13.462;2023-02-03T03:10:24;1.67;;;1.30;;
9807;SDS011;4943;52.550;13.462;2023-02-03T03:12:58;1.57;;;1.47;;
9807;SDS011;4943;52.550;13.462;2023-02-03T03:15:30;1.67;;;1.57;;
9807;SDS011;4943;52.550;13.462;2023-02-03T03:18:03;1.67;;;1.43;;
9807;SDS011;4943;52.550;13.462;2023-02-03T03:20:35;2.60;;;1.43;;
9807;SDS011;4943;52.550;13.462;2023-02-03T03:23:09;0.80;;;0.80;;
9807;SDS011;4943;52.550;13.462;2023-02-03T03:25:43;0.90;;;0.87;;
9807;SDS011;4943;52.550;13.462;2023-02-03T03:28:16;1.53;;;0.87;;
9807;SDS011;4943;52.550;13.462;2023-02-03T03:30:51;1.47;;;1.37;;
9807;SDS011;4943;52.550;13.462;2023-02-03T03:33:21;2.00;;;1.20;;
9807;SDS011;4943;52.550;13.462;2023-02-03T03:35:52;1.00;;;0.90;;
9807;SDS011;4943;52.550;13.462;2023-02-03T03:38:24;1.50;;;1.07;;
9807;SDS011;4943;52.550;13.462;2023-02-03T03:41:00;2.57;;;1.17;;
9807;SDS011;4943;52.550;13.462;2023-02-03T03:43:32;1.53;;;1.20;;
9807;SDS011;4943;52.550;13.462;2023-02-03T03:46:06;0.67;;;0.67;;
9807;SDS011;4943;52.550;13.462;2023-02-03T03:48:40;2.90;;;1.17;;
9807;SDS011;4943;52.550;13.462;2023-02-03T03:51:16;1.30;;;1.20;;
9807;SDS011;4943;52.550;13.462;2023-02-03T03:53:48;2.10;;;1.00;;
9807;SDS011;4943;52.550;13.462;2023-02-03T03:56:18;0.97;;;0.90;;
9807;SDS011;4943;52.550;13.462;2023-02-03T03:58:51;1.00;;;1.00;;
9807;SDS011;4943;52.550;13.462;2023-02-03T04:01:21;1.07;;;0.97;;
9807;SDS011;4943;52.550;13.462;2023-02-03T04:03:53;0.83;;;0.83;;
9807;SDS011;4943;52.550;13.462;2023-02-03T04:06:23;1.37;;;1.20;;
9807;SDS011;4943;52.550;13.462;2023-02-03T04:08:51;1.17;;;1.07;;
9807;SDS011;4943;52.550;13.462;2023-02-03T04:11:19;1.17;;;0.90;;
9807;SDS011;4943;52.550;13.462;2023-02-03T04:14:00;1.63;;;1.10;;
9807;SDS011;4943;52.550;13.462;2023-02-03T04:16:28;1.13;;;1.00;;
9807;SDS011;4943;52.550;13.462;2023-02-03T04:18:58;1.67;;;1.17;;
9807;SDS011;4943;52.550;13.462;2023-02-03T04:21:26;4.27;;;1.00;;
9807;SDS011;4943;52.550;13.462;2023-02-03T04:23:54;0.80;;;0.80;;
9807;SDS011;4943;52.550;13.462;2023-02-03T04:26:22;2.07;;;1.23;;
9807;SDS011;4943;52.550;13.462;2023-02-03T04:28:50;1.53;;;1.40;;
9807;SDS011;4943;52.550;13.462;2023-02-03T04:31:18;1.20;;;1.10;;
9807;SDS011;4943;52.550;13.462;2023-02-03T04:33:46;2.10;;;1.47;;
9807;SDS011;4943;52.550;13.462;2023-02-03T04:36:16;1.67;;;1.40;;
9807;SDS011;4943;52.550;13.462;2023-02-03T04:38:44;1.57;;;1.43;;
9807;SDS011;4943;52.550;13.462;2023-02-03T04:41:12;1.20;;;1.00;;
9807;SDS011;4943;52.550;13.462;2023-02-03T04:43:40;1.57;;;1.30;;
9807;SDS011;4943;52.550;13.462;2023-02-03T04:46:08;1.60;;;1.47;;
9807;SDS011;4943;52.550;13.462;2023-02-03T04:48:36;2.33;;;1.70;;
9807;SDS011;4943;52.550;13.462;2023-02-03T04:51:04;2.17;;;1.97;;
9807;SDS011;4943;52.550;13.462;2023-02-03T04:53:35;2.80;;;2.37;;
9807;SDS011;4943;52.550;13.462;2023-02-03T04:56:03;3.50;;;2.60;;
9807;SDS011;4943;52.550;13.462;2023-02-03T04:58:32;4.43;;;2.97;;
9807;SDS011;4943;52.550;13.462;2023-02-03T05:01:04;6.10;;;4.43;;
9807;SDS011;4943;52.550;13.462;2023-02-03T05:03:34;4.30;;;3.13;;
9807;SDS011;4943;52.550;13.462;2023-02-03T05:06:02;4.87;;;2.60;;
9807;SDS011;4943;52.550;13.462;2023-02-03T05:08:30;3.57;;;2.80;;
9807;SDS011;4943;52.550;13.462;2023-02-03T05:11:00;3.77;;;2.60;;
9807;SDS011;4943;52.550;13.462;2023-02-03T05:13:30;4.17;;;3.03;;
9807;SDS011;4943;52.550;13.462;2023-02-03T05:15:58;3.87;;;3.23;;
9807;SDS011;4943;52.550;13.462;2023-02-03T05:18:26;6.80;;;4.70;;
9807;SDS011;4943;52.550;13.462;2023-02-03T05:20:54;5.13;;;3.50;;
9807;SDS011;4943;52.550;13.462;2023-02-03T05:23:22;5.23;;;3.60;;
9807;SDS011;4943;52.550;13.462;2023-02-03T05:25:50;4.83;;;3.60;;
9807;SDS011;4943;52.550;13.462;2023-02-03T05:28:19;4.60;;;3.80;;
9807;SDS011;4943;52.550;13.462;2023-02-03T05:30:47;8.90;;;4.30;;
9807;SDS011;4943;52.550;13.462;2023-02-03T05:33:15;7.20;;;3.57;;
9807;SDS011;4943;52.550;13.462;2023-02-03T05:35:43;6.00;;;4.17;;
9807;SDS011;4943;52.550;13.462;2023-02-03T05:38:17;10.23;;;4.67;;
9807;SDS011;4943;52.550;13.462;2023-02-03T05:40:46;7.70;;;4.60;;
9807;SDS011;4943;52.550;13.462;2023-02-03T05:43:34;7.63;;;4.20;;
9807;SDS011;4943;52.550;13.462;2023-02-03T05:46:03;8.60;;;5.10;;
9807;SDS011;4943;52.550;13.462;2023-02-03T05:48:32;8.87;;;5.43;;
9807;SDS011;4943;52.550;13.462;2023-02-03T05:51:00;10.63;;;6.20;;
9807;SDS011;4943;52.550;13.462;2023-02-03T05:53:32;7.07;;;5.20;;
9807;SDS011;4943;52.550;13.462;2023-02-03T05:56:00;7.10;;;4.53;;
9807;SDS011;4943;52.550;13.462;2023-02-03T05:58:27;9.27;;;6.10;;
9807;SDS011;4943;52.550;13.462;2023-02-03T06:00:57;9.63;;;5.17;;
9807;SDS011;4943;52.550;13.462;2023-02-03T06:03:25;7.97;;;5.40;;
9807;SDS011;4943;52.550;13.462;2023-02-03T06:05:53;8.47;;;5.20;;
9807;SDS011;4943;52.550;13.462;2023-02-03T06:08:21;8.63;;;5.57;;
9807;SDS011;4943;52.550;13.462;2023-02-03T06:10:56;9.10;;;5.97;;
9807;SDS011;4943;52.550;13.462;2023-02-03T06:13:25;9.13;;;6.07;;
9807;SDS011;4943;52.550;13.462;2023-02-03T06:15:53;8.53;;;5.93;;
9807;SDS011;4943;52.550;13.462;2023-02-03T06:18:23;9.83;;;6.07;;
9807;SDS011;4943;52.550;13.462;2023-02-03T06:20:51;9.17;;;5.73;;
9807;SDS011;4943;52.550;13.462;2023-02-03T06:23:19;8.10;;;5.53;;
9807;SDS011;4943;52.550;13.462;2023-02-03T06:25:48;10.17;;;5.83;;
9807;SDS011;4943;52.550;13.462;2023-02-03T06:28:17;9.80;;;5.87;;
9807;SDS011;4943;52.550;13.462;2023-02-03T06:30:48;9.97;;;6.43;;
9807;SDS011;4943;52.550;13.462;2023-02-03T06:33:16;10.63;;;6.10;;
9807;SDS011;4943;52.550;13.462;2023-02-03T06:35:45;9.63;;;6.17;;
9807;SDS011;4943;52.550;13.462;2023-02-03T06:38:14;8.97;;;6.43;;
9807;SDS011;4943;52.550;13.462;2023-02-03T06:40:42;12.07;;;6.70;;
9807;SDS011;4943;52.550;13.462;2023-02-03T06:43:12;10.13;;;6.17;;
9807;SDS011;4943;52.550;13.462;2023-02-03T06:45:40;10.23;;;6.13;;
9807;SDS011;4943;52.550;13.462;2023-02-03T06:48:10;10.97;;;6.13;;
9807;SDS011;4943;52.550;13.462;2023-02-03T06:50:38;8.03;;;5.07;;
9807;SDS011;4943;52.550;13.462;2023-02-03T06:53:08;9.13;;;5.67;;
9807;SDS011;4943;52.550;13.462;2023-02-03T06:55:36;10.83;;;6.67;;
9807;SDS011;4943;52.550;13.462;2023-02-03T06:58:04;10.00;;;6.33;;
9807;SDS011;4943;52.550;13.462;2023-02-03T07:00:32;9.37;;;5.83;;
9807;SDS011;4943;52.550;13.462;2023-02-03T07:03:00;9.87;;;6.30;;
9807;SDS011;4943;52.550;13.462;2023-02-03T07:05:28;9.17;;;5.73;;
9807;SDS011;4943;52.550;13.462;2023-02-03T07:07:56;9.17;;;5.80;;
9807;SDS011;4943;52.550;13.462;2023-02-03T07:10:25;7.50;;;5.57;;
9807;SDS011;4943;52.550;13.462;2023-02-03T07:12:54;8.03;;;5.07;;
9807;SDS011;4943;52.550;13.462;2023-02-03T07:15:27;10.80;;;6.00;;
9807;SDS011;4943;52.550;13.462;2023-02-03T07:17:55;10.77;;;6.63;;
9807;SDS011;4943;52.550;13.462;2023-02-03T07:20:23;8.57;;;5.67;;
9807;SDS011;4943;52.550;13.462;2023-02-03T07:22:54;12.97;;;5.57;;
9807;SDS011;4943;52.550;13.462;2023-02-03T07:25:24;10.10;;;6.13;;
9807;SDS011;4943;52.550;13.462;2023-02-03T07:27:53;8.47;;;5.33;;
9807;SDS011;4943;52.550;13.462;2023-02-03T07:30:22;7.00;;;5.10;;
9807;SDS011;4943;52.550;13.462;2023-02-03T07:32:50;10.33;;;5.97;;
9807;SDS011;4943;52.550;13.462;2023-02-03T07:35:19;7.40;;;5.50;;
9807;SDS011;4943;52.550;13.462;2023-02-03T07:37:47;7.70;;;5.50;;
9807;SDS011;4943;52.550;13.462;2023-02-03T07:40:16;10.23;;;5.73;;
9807;SDS011;4943;52.550;13.462;2023-02-03T07:42:46;9.38;;;6.03;;
9807;SDS011;4943;52.550;13.462;2023-02-03T07:45:16;8.73;;;6.13;;
9807;SDS011;4943;52.550;13.462;2023-02-03T07:47:45;8.83;;;5.33;;
9807;SDS011;4943;52.550;13.462;2023-02-03T07:50:13;9.70;;;4.77;;
9807;SDS011;4943;52.550;13.462;2023-02-03T07:52:41;7.57;;;4.57;;
9807;SDS011;4943;52.550;13.462;2023-02-03T07:55:09;8.67;;;6.33;;
9807;SDS011;4943;52.550;13.462;2023-02-03T07:57:37;13.87;;;6.97;;
9807;SDS011;4943;52.550;13.462;2023-02-03T08:00:11;5.80;;;4.43;;
9807;SDS011;4943;52.550;13.462;2023-02-03T08:02:40;8.77;;;4.73;;
9807;SDS011;4943;52.550;13.462;2023-02-03T08:05:09;5.97;;;4.43;;
9807;SDS011;4943;52.550;13.462;2023-02-03T08:07:37;6.37;;;4.67;;
9807;SDS011;4943;52.550;13.462;2023-02-03T08:10:06;7.60;;;4.47;;
9807;SDS011;4943;52.550;13.462;2023-02-03T08:12:36;8.17;;;4.40;;
9807;SDS011;4943;52.550;13.462;2023-02-03T08:15:04;6.50;;;4.60;;
9807;SDS011;4943;52.550;13.462;2023-02-03T08:17:35;6.00;;;4.70;;
9807;SDS011;4943;52.550;13.462;2023-02-03T08:20:05;6.70;;;4.43;;
9807;SDS011;4943;52.550;13.462;2023-02-03T08:22:34;6.37;;;4.50;;
9807;SDS011;4943;52.550;13.462;2023-02-03T08:25:02;4.10;;;3.70;;
9807;SDS011;4943;52.550;13.462;2023-02-03T08:27:30;5.80;;;4.50;;
9807;SDS011;4943;52.550;13.462;2023-02-03T08:29:59;5.40;;;3.93;;
9807;SDS011;4943;52.550;13.462;2023-02-03T08:32:27;4.60;;;3.60;;
9807;SDS011;4943;52.550;13.462;2023-02-03T08:34:56;4.93;;;3.63;;
9807;SDS011;4943;52.550;13.462;2023-02-03T08:37:24;4.97;;;3.87;;
9807;SDS011;4943;52.550;13.462;2023-02-03T08:39:53;5.60;;;3.83;;
9807;SDS011;4943;52.550;13.462;2023-02-03T08:42:21;4.63;;;3.60;;
9807;SDS011;4943;52.550;13.462;2023-02-03T08:44:49;4.40;;;3.80;;
9807;SDS011;4943;52.550;13.462;2023-02-03T08:47:17;6.07;;;3.80;;
9807;SDS011;4943;52.550;13.462;2023-02-03T08:49:45;5.67;;;3.70;;
9807;SDS011;4943;52.550;13.462;2023-02-03T08:52:14;3.93;;;3.33;;
9807;SDS011;4943;52.550;13.462;2023-02-03T08:54:44;5.27;;;3.63;;
9807;SDS011;4943;52.550;13.462;2023-02-03T08:57:12;4.10;;;3.37;;
9807;SDS011;4943;52.550;13.462;2023-02-03T08:59:41;4.27;;;3.17;;
9807;SDS011;4943;52.550;13.462;2023-02-03T09:02:12;4.03;;;3.20;;
9807;SDS011;4943;52.550;13.462;2023-02-03T09:04:41;3.70;;;3.30;;
9807;SDS011;4943;52.550;13.462;2023-02-03T09:07:10;5.23;;;3.20;;
9807;SDS011;4943;52.550;13.462;2023-02-03T09:09:40;5.00;;;3.10;;
9807;SDS011;4943;52.550;13.462;2023-02-03T09:12:08;4.03;;;2.90;;
9807;SDS011;4943;52.550;13.462;2023-02-03T09:14:38;3.47;;;2.40;;
9807;SDS011;4943;52.550;13.462;2023-02-03T09:17:06;3.40;;;2.80;;
9807;SDS011;4943;52.550;13.462;2023-02-03T09:19:34;4.33;;;2.60;;
9807;SDS011;4943;52.550;13.462;2023-02-03T09:22:02;3.43;;;2.33;;
9807;SDS011;4943;52.550;13.462;2023-02-03T09:24:31;3.47;;;3.13;;
9807;SDS011;4943;52.550;13.462;2023-02-03T09:27:01;4.50;;;3.33;;
9807;SDS011;4943;52.550;13.462;2023-02-03T09:29:29;4.80;;;2.73;;
9807;SDS011;4943;52.550;13.462;2023-02-03T09:31:57;4.37;;;2.90;;
9807;SDS011;4943;52.550;13.462;2023-02-03T09:34:25;4.60;;;3.00;;
9807;SDS011;4943;52.550;13.462;2023-02-03T09:36:54;4.77;;;2.40;;
9807;SDS011;4943;52.550;13.462;2023-02-03T09:39:22;4.73;;;2.67;;
9807;SDS011;4943;52.550;13.462;2023-02-03T09:41:54;2.70;;;2.30;;
9807;SDS011;4943;52.550;13.462;2023-02-03T09:44:36;2.83;;;2.03;;
9807;SDS011;4943;52.550;13.462;2023-02-03T09:47:10;5.87;;;2.53;;
9807;SDS011;4943;52.550;13.462;2023-02-03T09:49:41;4.63;;;2.60;;
9807;SDS011;4943;52.550;13.462;2023-02-03T09:52:16;9.27;;;2.50;;
9807;SDS011;4943;52.550;13.462;2023-02-03T09:54:49;3.73;;;2.57;;
9807;SDS011;4943;52.550;13.462;2023-02-03T09:57:24;3.20;;;2.13;;
9807;SDS011;4943;52.550;13.462;2023-02-03T09:59:53;3.40;;;2.00;;
9807;SDS011;4943;52.550;13.462;2023-02-03T10:02:29;3.17;;;2.17;;
9807;SDS011;4943;52.550;13.462;2023-02-03T10:05:14;2.97;;;2.10;;
9807;SDS011;4943;52.550;13.462;2023-02-03T10:07:50;1.60;;;1.50;;
9807;SDS011;4943;52.550;13.462;2023-02-03T10:10:27;3.00;;;1.90;;
9807;SDS011;4943;52.550;13.462;2023-02-03T10:13:09;3.43;;;1.90;;
9807;SDS011;4943;52.550;13.462;2023-02-03T10:15:52;2.37;;;2.03;;
9807;SDS011;4943;52.550;13.462;2023-02-03T10:18:29;2.00;;;1.77;;
9807;SDS011;4943;52.550;13.462;2023-02-03T10:21:03;2.20;;;2.00;;
9807;SDS011;4943;52.550;13.462;2023-02-03T10:23:41;3.90;;;1.80;;
9807;SDS011;4943;52.550;13.462;2023-02-03T10:26:13;2.20;;;1.60;;
9807;SDS011;4943;52.550;13.462;2023-02-03T10:28:52;2.20;;;1.53;;
9807;SDS011;4943;52.550;13.462;2023-02-03T10:31:23;2.93;;;1.57;;
9807;SDS011;4943;52.550;13.462;2023-02-03T10:33:56;4.50;;;2.20;;
9807;SDS011;4943;52.550;13.462;2023-02-03T10:36:30;2.17;;;1.50;;
9807;SDS011;4943;52.550;13.462;2023-02-03T10:39:09;1.27;;;1.17;;
9807;SDS011;4943;52.550;13.462;2023-02-03T10:41:45;2.20;;;0.80;;
9807;SDS011;4943;52.550;13.462;2023-02-03T10:44:15;1.67;;;0.73;;
9807;SDS011;4943;52.550;13.462;2023-02-03T10:46:43;1.40;;;0.23;;
9807;SDS011;4943;52.550;13.462;2023-02-03T10:49:11;1.83;;;0.67;;
9807;SDS011;4943;52.550;13.462;2023-02-03T10:51:43;2.10;;;0.73;;
9807;SDS011;4943;52.550;13.462;2023-02-03T10:54:25;4.50;;;1.17;;
9807;SDS011;4943;52.550;13.462;2023-02-03T10:56:54;1.77;;;1.27;;
9807;SDS011;4943;52.550;13.462;2023-02-03T10:59:30;4.67;;;0.90;;
9807;SDS011;4943;52.550;13.462;2023-02-03T11:02:05;3.63;;;1.50;;
9807;SDS011;4943;52.550;13.462;2023-02-03T11:04:35;9.33;;;1.20;;
9807;SDS011;4943;52.550;13.462;2023-02-03T11:07:04;7.33;;;1.10;;
9807;SDS011;4943;52.550;13.462;2023-02-03T11:09:34;2.33;;;1.00;;
9807;SDS011;4943;52.550;13.462;2023-02-03T11:12:05;4.03;;;1.43;;
9807;SDS011;4943;52.550;13.462;2023-02-03T11:14:39;14.00;;;1.50;;
9807;SDS011;4943;52.550;13.462;2023-02-03T11:17:13;8.07;;;1.57;;
9807;SDS011;4943;52.550;13.462;2023-02-03T11:19:44;3.07;;;1.00;;
9807;SDS011;4943;52.550;13.462;2023-02-03T11:22:21;9.33;;;1.47;;
9807;SDS011;4943;52.550;13.462;2023-02-03T11:24:54;3.87;;;1.37;;
9807;SDS011;4943;52.550;13.462;2023-02-03T11:27:23;7.27;;;1.57;;
9807;SDS011;4943;52.550;13.462;2023-02-03T11:30:09;4.20;;;1.20;;
9807;SDS011;4943;52.550;13.462;2023-02-03T11:32:41;3.07;;;1.60;;
9807;SDS011;4943;52.550;13.462;2023-02-03T11:35:13;9.30;;;1.47;;
9807;SDS011;4943;52.550;13.462;2023-02-03T11:37:45;4.40;;;1.20;;
9807;SDS011;4943;52.550;13.462;2023-02-03T11:40:23;4.90;;;1.53;;
9807;SDS011;4943;52.550;13.462;2023-02-03T11:43:01;5.70;;;1.20;;
9807;SDS011;4943;52.550;13.462;2023-02-03T11:45:36;9.83;;;2.20;;
9807;SDS011;4943;52.550;13.462;2023-02-03T11:48:13;5.37;;;1.83;;
9807;SDS011;4943;52.550;13.462;2023-02-03T11:50:47;5.67;;;1.50;;
9807;SDS011;4943;52.550;13.462;2023-02-03T11:53:24;11.53;;;2.47;;
9807;SDS011;4943;52.550;13.462;2023-02-03T11:56:06;10.17;;;2.20;;
9807;SDS011;4943;52.550;13.462;2023-02-03T12:02:01;11.67;;;2.10;;
9807;SDS011;4943;52.550;13.462;2023-02-03T12:07:57;6.67;;;2.97;;
9807;SDS011;4943;52.550;13.462;2023-02-03T12:10:42;3.63;;;1.63;;
9807;SDS011;4943;52.550;13.462;2023-02-03T12:13:27;6.40;;;2.33;;
9807;SDS011;4943;52.550;13.462;2023-02-03T12:16:12;9.17;;;1.50;;
9807;SDS011;4943;52.550;13.462;2023-02-03T12:18:57;7.30;;;1.90;;
9807;SDS011;4943;52.550;13.462;2023-02-03T12:21:40;8.87;;;2.53;;
9807;SDS011;4943;52.550;13.462;2023-02-03T12:24:16;9.13;;;2.00;;
9807;SDS011;4943;52.550;13.462;2023-02-03T12:27:00;11.73;;;2.23;;
9807;SDS011;4943;52.550;13.462;2023-02-03T12:29:38;9.47;;;2.57;;
9807;SDS011;4943;52.550;13.462;2023-02-03T12:32:11;3.20;;;1.23;;
9807;SDS011;4943;52.550;13.462;2023-02-03T12:34:48;4.53;;;1.47;;
9807;SDS011;4943;52.550;13.462;2023-02-03T12:37:21;11.17;;;3.07;;
9807;SDS011;4943;52.550;13.462;2023-02-03T12:39:53;9.23;;;2.80;;
9807;SDS011;4943;52.550;13.462;2023-02-03T12:42:26;6.57;;;2.13;;
9807;SDS011;4943;52.550;13.462;2023-02-03T12:44:58;13.23;;;2.60;;
9807;SDS011;4943;52.550;13.462;2023-02-03T12:47:30;3.30;;;1.77;;
9807;SDS011;4943;52.550;13.462;2023-02-03T12:50:09;12.90;;;2.73;;
9807;SDS011;4943;52.550;13.462;2023-02-03T12:52:46;10.20;;;3.03;;
9807;SDS011;4943;52.550;13.462;2023-02-03T12:55:19;12.50;;;2.27;;
9807;SDS011;4943;52.550;13.462;2023-02-03T12:57:54;7.13;;;1.70;;
9807;SDS011;4943;52.550;13.462;2023-02-03T13:00:31;1.20;;;0.87;;
9807;SDS011;4943;52.550;13.462;2023-02-03T13:03:08;3.33;;;1.20;;
9807;SDS011;4943;52.550;13.462;2023-02-03T13:05:55;2.83;;;1.17;;
9807;SDS011;4943;52.550;13.462;2023-02-03T13:08:28;3.60;;;0.77;;
9807;SDS011;4943;52.550;13.462;2023-02-03T13:11:09;1.33;;;0.70;;
9807;SDS011;4943;52.550;13.462;2023-02-03T13:13:47;5.03;;;1.67;;
9807;SDS011;4943;52.550;13.462;2023-02-03T13:16:20;2.87;;;1.10;;
9807;SDS011;4943;52.550;13.462;2023-02-03T13:18:52;7.57;;;1.30;;
9807;SDS011;4943;52.550;13.462;2023-02-03T13:21:26;6.00;;;2.00;;
9807;SDS011;4943;52.550;13.462;2023-02-03T13:23:54;4.77;;;1.97;;
9807;SDS011;4943;52.550;13.462;2023-02-03T13:26:36;6.07;;;1.33;;
9807;SDS011;4943;52.550;13.462;2023-02-03T13:29:29;6.07;;;1.40;;
9807;SDS011;4943;52.550;13.462;2023-02-03T13:32:12;2.57;;;1.00;;
9807;SDS011;4943;52.550;13.462;2023-02-03T13:35:05;6.13;;;1.90;;
9807;SDS011;4943;52.550;13.462;2023-02-03T13:38:09;8.30;;;2.00;;
9807;SDS011;4943;52.550;13.462;2023-02-03T13:40:56;6.27;;;1.80;;
9807;SDS011;4943;52.550;13.462;2023-02-03T13:43:29;5.80;;;1.40;;
9807;SDS011;4943;52.550;13.462;2023-02-03T13:46:05;6.97;;;1.40;;
9807;SDS011;4943;52.550;13.462;2023-02-03T13:48:42;6.53;;;2.17;;
9807;SDS011;4943;52.550;13.462;2023-02-03T13:51:13;4.83;;;1.50;;
9807;SDS011;4943;52.550;13.462;2023-02-03T13:53:44;6.13;;;2.37;;
9807;SDS011;4943;52.550;13.462;2023-02-03T13:56:16;7.37;;;2.07;;
9807;SDS011;4943;52.550;13.462;2023-02-03T13:59:04;11.77;;;1.83;;
9807;SDS011;4943;52.550;13.462;2023-02-03T14:01:34;10.20;;;1.97;;
9807;SDS011;4943;52.550;13.462;2023-02-03T14:04:04;8.80;;;2.70;;
9807;SDS011;4943;52.550;13.462;2023-02-03T14:09:37;4.67;;;1.83;;
9807;SDS011;4943;52.550;13.462;2023-02-03T14:12:11;10.03;;;3.20;;
9807;SDS011;4943;52.550;13.462;2023-02-03T14:15:15;16.27;;;2.77;;
9807;SDS011;4943;52.550;13.462;2023-02-03T14:17:57;8.70;;;2.07;;
9807;SDS011;4943;52.550;13.462;2023-02-03T14:20:37;9.33;;;2.27;;
9807;SDS011;4943;52.550;13.462;2023-02-03T14:23:14;11.90;;;3.00;;
9807;SDS011;4943;52.550;13.462;2023-02-03T14:25:48;10.50;;;2.03;;
9807;SDS011;4943;52.550;13.462;2023-02-03T14:28:19;9.57;;;2.70;;
9807;SDS011;4943;52.550;13.462;2023-02-03T14:33:49;10.87;;;2.93;;
9807;SDS011;4943;52.550;13.462;2023-02-03T14:36:28;9.20;;;2.10;;
9807;SDS011;4943;52.550;13.462;2023-02-03T14:39:02;24.47;;;8.30;;
9807;SDS011;4943;52.550;13.462;2023-02-03T14:41:53;14.13;;;8.33;;
9807;SDS011;4943;52.550;13.462;2023-02-03T14:44:29;9.83;;;2.43;;
9807;SDS011;4943;52.550;13.462;2023-02-03T14:47:07;10.87;;;2.17;;
9807;SDS011;4943;52.550;13.462;2023-02-03T14:49:51;12.27;;;2.80;;
9807;SDS011;4943;52.550;13.462;2023-02-03T14:52:37;8.97;;;3.43;;
9807;SDS011;4943;52.550;13.462;2023-02-03T14:55:22;15.70;;;3.07;;
9807;SDS011;4943;52.550;13.462;2023-02-03T14:58:04;9.43;;;2.97;;
9807;SDS011;4943;52.550;13.462;2023-02-03T15:00:41;10.43;;;2.73;;
9807;SDS011;4943;52.550;13.462;2023-02-03T15:03:16;10.77;;;2.63;;
9807;SDS011;4943;52.550;13.462;2023-02-03T15:05:48;13.33;;;3.07;;
9807;SDS011;4943;52.550;13.462;2023-02-03T15:08:31;8.20;;;2.90;;
9807;SDS011;4943;52.550;13.462;2023-02-03T15:13:55;4.70;;;1.90;;
9807;SDS011;4943;52.550;13.462;2023-02-03T15:16:40;8.57;;;2.70;;
9807;SDS011;4943;52.550;13.462;2023-02-03T15:19:16;11.57;;;3.13;;
9807;SDS011;4943;52.550;13.462;2023-02-03T15:21:45;6.87;;;3.03;;
9807;SDS011;4943;52.550;13.462;2023-02-03T15:24:14;18.03;;;3.00;;
9807;SDS011;4943;52.550;13.462;2023-02-03T15:26:45;9.60;;;2.47;;
9807;SDS011;4943;52.550;13.462;2023-02-03T15:29:29;13.20;;;2.90;;
9807;SDS011;4943;52.550;13.462;2023-02-03T15:32:00;11.03;;;2.60;;
9807;SDS011;4943;52.550;13.462;2023-02-03T15:34:33;10.67;;;2.27;;
9807;SDS011;4943;52.550;13.462;2023-02-03T15:37:08;8.30;;;3.20;;
9807;SDS011;4943;52.550;13.462;2023-02-03T15:39:52;12.13;;;2.60;;
9807;SDS011;4943;52.550;13.462;2023-02-03T15:42:26;9.97;;;3.07;;
9807;SDS011;4943;52.550;13.462;2023-02-03T15:45:02;15.40;;;3.03;;
9807;SDS011;4943;52.550;13.462;2023-02-03T15:47:34;9.80;;;2.50;;
9807;SDS011;4943;52.550;13.462;2023-02-03T15:50:06;8.23;;;2.47;;
9807;SDS011;4943;52.550;13.462;2023-02-03T15:52:42;6.67;;;2.20;;